sensor_id;sensor_type;location;lat;lon;timestamp;P1;durP1;ratioP1;P2;durP2;ratioP2
17812;SDS011;9030;50.792;8.320;2023-07-31T00:01:14;10.10;;;4.43;;
17812;SDS011;9030;50.792;8.320;2023-07-31T00:03:42;9.63;;;4.13;;
17812;SDS011;9030;50.792;8.320;2023-07-31T00:06:09;10.20;;;4.28;;
17812;SDS011;9030;50.792;8.320;2023-07-31T00:08:35;10.20;;;5.05;;
17812;SDS011;9030;50.792;8.320;2023-07-31T00:11:02;11.20;;;3.63;;
17812;SDS011;9030;50.792;8.320;2023-07-31T00:13:29;10.45;;;3.90;;
17812;SDS011;9030;50.792;8.320;2023-07-31T00:15:55;12.70;;;4.55;;
17812;SDS011;9030;50.792;8.320;2023-07-31T00:18:22;9.77;;;4.65;;
17812;SDS011;9030;50.792;8.320;2023-07-31T00:20:50;11.07;;;3.85;;
17812;SDS011;9030;50.792;8.320;2023-07-31T00:23:16;9.35;;;3.55;;
17812;SDS011;9030;50.792;8.320;2023-07-31T00:25:43;9.25;;;3.97;;
17812;SDS011;9030;50.792;8.320;2023-07-31T00:28:09;12.15;;;4.47;;
17812;SDS011;9030;50.792;8.320;2023-07-31T00:30:36;10.20;;;4.22;;
17812;SDS011;9030;50.792;8.320;2023-07-31T00:33:03;12.23;;;4.55;;
17812;SDS011;9030;50.792;8.320;2023-07-31T00:35:30;13.90;;;4.80;;
17812;SDS011;9030;50.792;8.320;2023-07-31T00:40:26;13.93;;;4.07;;
17812;SDS011;9030;50.792;8.320;2023-07-31T00:42:52;11.70;;;4.80;;
17812;SDS011;9030;50.792;8.320;2023-07-31T00:45:19;10.20;;;4.30;;
17812;SDS011;9030;50.792;8.320;2023-07-31T00:47:48;10.45;;;4.60;;
17812;SDS011;9030;50.792;8.320;2023-07-31T00:50:14;8.68;;;4.18;;
17812;SDS011;9030;50.792;8.320;2023-07-31T00:52:41;10.88;;;4.53;;
17812;SDS011;9030;50.792;8.320;2023-07-31T00:55:09;8.90;;;3.92;;
17812;SDS011;9030;50.792;8.320;2023-07-31T00:57:36;14.48;;;4.63;;
17812;SDS011;9030;50.792;8.320;2023-07-31T01:00:04;10.10;;;4.40;;
17812;SDS011;9030;50.792;8.320;2023-07-31T01:02:32;13.10;;;4.50;;
17812;SDS011;9030;50.792;8.320;2023-07-31T01:04:59;13.43;;;4.82;;
17812;SDS011;9030;50.792;8.320;2023-07-31T01:07:27;9.60;;;3.85;;
17812;SDS011;9030;50.792;8.320;2023-07-31T01:10:02;8.13;;;4.20;;
17812;SDS011;9030;50.792;8.320;2023-07-31T01:12:35;12.75;;;5.07;;
17812;SDS011;9030;50.792;8.320;2023-07-31T01:15:04;11.68;;;4.55;;
17812;SDS011;9030;50.792;8.320;2023-07-31T01:17:34;10.38;;;5.03;;
17812;SDS011;9030;50.792;8.320;2023-07-31T01:20:02;15.35;;;4.40;;
17812;SDS011;9030;50.792;8.320;2023-07-31T01:22:39;14.10;;;5.03;;
17812;SDS011;9030;50.792;8.320;2023-07-31T01:25:17;11.70;;;4.85;;
17812;SDS011;9030;50.792;8.320;2023-07-31T01:28:01;11.85;;;4.40;;
17812;SDS011;9030;50.792;8.320;2023-07-31T01:30:32;10.05;;;4.57;;
17812;SDS011;9030;50.792;8.320;2023-07-31T01:33:01;10.77;;;4.63;;
17812;SDS011;9030;50.792;8.320;2023-07-31T01:35:32;14.02;;;5.35;;
17812;SDS011;9030;50.792;8.320;2023-07-31T01:37:59;14.90;;;5.32;;
17812;SDS011;9030;50.792;8.320;2023-07-31T01:40:25;11.00;;;4.97;;
17812;SDS011;9030;50.792;8.320;2023-07-31T01:42:52;9.20;;;4.82;;
17812;SDS011;9030;50.792;8.320;2023-07-31T01:45:20;13.98;;;5.70;;
17812;SDS011;9030;50.792;8.320;2023-07-31T01:47:47;11.65;;;5.63;;
17812;SDS011;9030;50.792;8.320;2023-07-31T01:50:13;10.98;;;3.70;;
17812;SDS011;9030;50.792;8.320;2023-07-31T01:52:40;10.50;;;4.80;;
17812;SDS011;9030;50.792;8.320;2023-07-31T01:55:07;13.57;;;5.30;;
17812;SDS011;9030;50.792;8.320;2023-07-31T01:57:33;16.25;;;5.40;;
17812;SDS011;9030;50.792;8.320;2023-07-31T02:00:00;11.75;;;4.80;;
17812;SDS011;9030;50.792;8.320;2023-07-31T02:02:28;13.23;;;5.15;;
17812;SDS011;9030;50.792;8.320;2023-07-31T02:04:55;11.95;;;4.68;;
17812;SDS011;9030;50.792;8.320;2023-07-31T02:07:21;10.77;;;5.20;;
17812;SDS011;9030;50.792;8.320;2023-07-31T02:09:48;8.90;;;3.92;;
17812;SDS011;9030;50.792;8.320;2023-07-31T02:12:14;11.27;;;4.68;;
17812;SDS011;9030;50.792;8.320;2023-07-31T02:14:42;13.32;;;5.22;;
17812;SDS011;9030;50.792;8.320;2023-07-31T02:17:08;12.40;;;5.63;;
17812;SDS011;9030;50.792;8.320;2023-07-31T02:19:36;12.93;;;6.20;;
17812;SDS011;9030;50.792;8.320;2023-07-31T02:22:03;14.52;;;5.53;;
17812;SDS011;9030;50.792;8.320;2023-07-31T02:24:30;9.85;;;4.93;;
17812;SDS011;9030;50.792;8.320;2023-07-31T02:26:57;10.32;;;4.07;;
17812;SDS011;9030;50.792;8.320;2023-07-31T02:29:23;9.25;;;5.03;;
17812;SDS011;9030;50.792;8.320;2023-07-31T02:31:50;9.77;;;4.20;;
17812;SDS011;9030;50.792;8.320;2023-07-31T02:34:16;12.23;;;5.05;;
17812;SDS011;9030;50.792;8.320;2023-07-31T02:36:44;12.95;;;4.72;;
17812;SDS011;9030;50.792;8.320;2023-07-31T02:39:11;12.93;;;5.20;;
17812;SDS011;9030;50.792;8.320;2023-07-31T02:41:37;12.52;;;4.72;;
17812;SDS011;9030;50.792;8.320;2023-07-31T02:44:04;11.25;;;3.75;;
17812;SDS011;9030;50.792;8.320;2023-07-31T02:46:31;12.45;;;4.55;;
17812;SDS011;9030;50.792;8.320;2023-07-31T02:48:57;12.25;;;5.05;;
17812;SDS011;9030;50.792;8.320;2023-07-31T02:51:24;10.75;;;4.97;;
17812;SDS011;9030;50.792;8.320;2023-07-31T02:53:52;11.48;;;5.03;;
17812;SDS011;9030;50.792;8.320;2023-07-31T02:56:18;9.38;;;4.65;;
17812;SDS011;9030;50.792;8.320;2023-07-31T02:58:45;12.65;;;4.65;;
17812;SDS011;9030;50.792;8.320;2023-07-31T03:01:12;10.07;;;3.92;;
17812;SDS011;9030;50.792;8.320;2023-07-31T03:03:38;11.30;;;3.95;;
17812;SDS011;9030;50.792;8.320;2023-07-31T03:06:05;11.00;;;3.67;;
17812;SDS011;9030;50.792;8.320;2023-07-31T03:08:31;8.55;;;3.38;;
17812;SDS011;9030;50.792;8.320;2023-07-31T03:10:59;7.57;;;3.50;;
17812;SDS011;9030;50.792;8.320;2023-07-31T03:13:26;10.48;;;3.90;;
17812;SDS011;9030;50.792;8.320;2023-07-31T03:15:53;7.57;;;3.45;;
17812;SDS011;9030;50.792;8.320;2023-07-31T03:18:19;9.95;;;4.05;;
17812;SDS011;9030;50.792;8.320;2023-07-31T03:20:46;9.90;;;4.43;;
17812;SDS011;9030;50.792;8.320;2023-07-31T03:23:12;13.10;;;4.43;;
17812;SDS011;9030;50.792;8.320;2023-07-31T03:25:41;12.90;;;4.40;;
17812;SDS011;9030;50.792;8.320;2023-07-31T03:28:22;9.43;;;4.20;;
17812;SDS011;9030;50.792;8.320;2023-07-31T03:30:48;11.35;;;4.88;;
17812;SDS011;9030;50.792;8.320;2023-07-31T03:33:15;10.20;;;4.10;;
17812;SDS011;9030;50.792;8.320;2023-07-31T03:35:42;10.35;;;5.05;;
17812;SDS011;9030;50.792;8.320;2023-07-31T03:38:08;8.85;;;3.97;;
17812;SDS011;9030;50.792;8.320;2023-07-31T03:40:35;8.85;;;4.40;;
17812;SDS011;9030;50.792;8.320;2023-07-31T03:43:01;9.65;;;4.57;;
17812;SDS011;9030;50.792;8.320;2023-07-31T03:45:29;10.52;;;5.63;;
17812;SDS011;9030;50.792;8.320;2023-07-31T03:47:56;11.32;;;4.90;;
17812;SDS011;9030;50.792;8.320;2023-07-31T03:50:23;10.68;;;4.28;;
17812;SDS011;9030;50.792;8.320;2023-07-31T03:52:50;11.77;;;4.60;;
17812;SDS011;9030;50.792;8.320;2023-07-31T03:55:16;12.63;;;5.93;;
17812;SDS011;9030;50.792;8.320;2023-07-31T03:57:43;11.65;;;5.80;;
17812;SDS011;9030;50.792;8.320;2023-07-31T04:00:10;10.45;;;5.00;;
17812;SDS011;9030;50.792;8.320;2023-07-31T04:02:39;10.10;;;5.20;;
17812;SDS011;9030;50.792;8.320;2023-07-31T04:05:05;10.82;;;4.10;;
17812;SDS011;9030;50.792;8.320;2023-07-31T04:07:34;10.45;;;5.68;;
17812;SDS011;9030;50.792;8.320;2023-07-31T04:10:01;15.35;;;5.82;;
17812;SDS011;9030;50.792;8.320;2023-07-31T04:12:28;10.27;;;5.18;;
17812;SDS011;9030;50.792;8.320;2023-07-31T04:14:54;11.50;;;5.00;;
17812;SDS011;9030;50.792;8.320;2023-07-31T04:17:21;11.25;;;5.38;;
17812;SDS011;9030;50.792;8.320;2023-07-31T04:19:49;10.02;;;4.80;;
17812;SDS011;9030;50.792;8.320;2023-07-31T04:22:15;12.52;;;5.63;;
17812;SDS011;9030;50.792;8.320;2023-07-31T04:24:42;13.07;;;6.13;;
17812;SDS011;9030;50.792;8.320;2023-07-31T04:27:09;11.65;;;5.60;;
17812;SDS011;9030;50.792;8.320;2023-07-31T04:29:35;14.45;;;6.25;;
17812;SDS011;9030;50.792;8.320;2023-07-31T04:32:02;13.73;;;6.28;;
17812;SDS011;9030;50.792;8.320;2023-07-31T04:34:29;13.38;;;6.15;;
17812;SDS011;9030;50.792;8.320;2023-07-31T04:36:57;13.70;;;5.80;;
17812;SDS011;9030;50.792;8.320;2023-07-31T04:39:24;10.32;;;5.72;;
17812;SDS011;9030;50.792;8.320;2023-07-31T04:41:50;11.65;;;6.18;;
17812;SDS011;9030;50.792;8.320;2023-07-31T04:44:17;15.70;;;6.60;;
17812;SDS011;9030;50.792;8.320;2023-07-31T04:46:43;11.20;;;6.05;;
17812;SDS011;9030;50.792;8.320;2023-07-31T04:49:10;11.57;;;5.53;;
17812;SDS011;9030;50.792;8.320;2023-07-31T04:51:37;12.05;;;5.82;;
17812;SDS011;9030;50.792;8.320;2023-07-31T04:54:05;12.30;;;5.95;;
17812;SDS011;9030;50.792;8.320;2023-07-31T04:56:32;11.48;;;5.45;;
17812;SDS011;9030;50.792;8.320;2023-07-31T04:58:58;13.25;;;5.93;;
17812;SDS011;9030;50.792;8.320;2023-07-31T05:01:25;15.38;;;6.43;;
17812;SDS011;9030;50.792;8.320;2023-07-31T05:03:52;11.43;;;5.55;;
17812;SDS011;9030;50.792;8.320;2023-07-31T05:06:18;13.88;;;6.32;;
17812;SDS011;9030;50.792;8.320;2023-07-31T05:08:45;11.25;;;5.72;;
17812;SDS011;9030;50.792;8.320;2023-07-31T05:11:13;20.00;;;7.18;;
17812;SDS011;9030;50.792;8.320;2023-07-31T05:13:40;12.85;;;6.85;;
17812;SDS011;9030;50.792;8.320;2023-07-31T05:16:06;14.02;;;6.75;;
17812;SDS011;9030;50.792;8.320;2023-07-31T05:18:33;15.68;;;6.75;;
17812;SDS011;9030;50.792;8.320;2023-07-31T05:21:00;11.00;;;5.20;;
17812;SDS011;9030;50.792;8.320;2023-07-31T05:23:27;11.05;;;6.15;;
17812;SDS011;9030;50.792;8.320;2023-07-31T05:25:54;10.82;;;5.53;;
17812;SDS011;9030;50.792;8.320;2023-07-31T05:28:22;13.15;;;6.00;;
17812;SDS011;9030;50.792;8.320;2023-07-31T05:30:48;14.45;;;6.50;;
17812;SDS011;9030;50.792;8.320;2023-07-31T05:33:15;13.30;;;5.95;;
17812;SDS011;9030;50.792;8.320;2023-07-31T05:35:42;11.80;;;5.30;;
17812;SDS011;9030;50.792;8.320;2023-07-31T05:38:09;12.40;;;6.43;;
17812;SDS011;9030;50.792;8.320;2023-07-31T05:40:36;11.65;;;5.85;;
17812;SDS011;9030;50.792;8.320;2023-07-31T05:43:03;13.93;;;6.10;;
17812;SDS011;9030;50.792;8.320;2023-07-31T05:45:32;16.95;;;5.85;;
17812;SDS011;9030;50.792;8.320;2023-07-31T05:47:59;11.40;;;5.18;;
17812;SDS011;9030;50.792;8.320;2023-07-31T05:50:26;10.77;;;5.47;;
17812;SDS011;9030;50.792;8.320;2023-07-31T05:52:52;13.60;;;5.25;;
17812;SDS011;9030;50.792;8.320;2023-07-31T05:55:19;13.45;;;6.43;;
17812;SDS011;9030;50.792;8.320;2023-07-31T05:57:46;13.35;;;5.93;;
17812;SDS011;9030;50.792;8.320;2023-07-31T06:00:12;11.43;;;5.82;;
17812;SDS011;9030;50.792;8.320;2023-07-31T06:02:41;10.93;;;6.35;;
17812;SDS011;9030;50.792;8.320;2023-07-31T06:05:08;13.23;;;5.78;;
17812;SDS011;9030;50.792;8.320;2023-07-31T06:07:35;10.23;;;5.75;;
17812;SDS011;9030;50.792;8.320;2023-07-31T06:10:01;10.60;;;5.00;;
17812;SDS011;9030;50.792;8.320;2023-07-31T06:12:30;10.88;;;5.63;;
17812;SDS011;9030;50.792;8.320;2023-07-31T06:14:57;11.95;;;6.20;;
17812;SDS011;9030;50.792;8.320;2023-07-31T06:17:24;12.85;;;7.43;;
17812;SDS011;9030;50.792;8.320;2023-07-31T06:19:52;12.20;;;6.00;;
17812;SDS011;9030;50.792;8.320;2023-07-31T06:22:19;9.35;;;4.65;;
17812;SDS011;9030;50.792;8.320;2023-07-31T06:24:46;11.45;;;5.50;;
17812;SDS011;9030;50.792;8.320;2023-07-31T06:27:12;12.98;;;6.10;;
17812;SDS011;9030;50.792;8.320;2023-07-31T06:29:39;13.68;;;6.10;;
17812;SDS011;9030;50.792;8.320;2023-07-31T06:32:06;13.20;;;5.82;;
17812;SDS011;9030;50.792;8.320;2023-07-31T06:34:33;13.23;;;5.72;;
17812;SDS011;9030;50.792;8.320;2023-07-31T06:37:01;11.38;;;5.32;;
17812;SDS011;9030;50.792;8.320;2023-07-31T06:39:28;11.75;;;5.70;;
17812;SDS011;9030;50.792;8.320;2023-07-31T06:41:54;12.02;;;5.53;;
17812;SDS011;9030;50.792;8.320;2023-07-31T06:44:21;10.63;;;5.40;;
17812;SDS011;9030;50.792;8.320;2023-07-31T06:46:47;13.23;;;5.85;;
17812;SDS011;9030;50.792;8.320;2023-07-31T06:49:14;10.10;;;5.47;;
17812;SDS011;9030;50.792;8.320;2023-07-31T06:51:40;12.43;;;5.97;;
17812;SDS011;9030;50.792;8.320;2023-07-31T06:54:08;12.18;;;5.95;;
17812;SDS011;9030;50.792;8.320;2023-07-31T06:56:35;10.32;;;5.18;;
17812;SDS011;9030;50.792;8.320;2023-07-31T06:59:02;11.50;;;5.15;;
17812;SDS011;9030;50.792;8.320;2023-07-31T07:01:29;11.40;;;5.60;;
17812;SDS011;9030;50.792;8.320;2023-07-31T07:03:55;13.07;;;5.97;;
17812;SDS011;9030;50.792;8.320;2023-07-31T07:06:22;8.88;;;4.78;;
17812;SDS011;9030;50.792;8.320;2023-07-31T07:08:49;11.02;;;5.30;;
17812;SDS011;9030;50.792;8.320;2023-07-31T07:11:17;11.98;;;6.28;;
17812;SDS011;9030;50.792;8.320;2023-07-31T07:13:43;10.15;;;4.47;;
17812;SDS011;9030;50.792;8.320;2023-07-31T07:16:10;11.50;;;4.95;;
17812;SDS011;9030;50.792;8.320;2023-07-31T07:18:36;13.80;;;6.68;;
17812;SDS011;9030;50.792;8.320;2023-07-31T07:21:03;11.65;;;6.32;;
17812;SDS011;9030;50.792;8.320;2023-07-31T07:23:30;11.55;;;5.05;;
17812;SDS011;9030;50.792;8.320;2023-07-31T07:25:56;9.65;;;4.75;;
17812;SDS011;9030;50.792;8.320;2023-07-31T07:28:24;12.35;;;6.20;;
17812;SDS011;9030;50.792;8.320;2023-07-31T07:30:51;9.75;;;5.05;;
17812;SDS011;9030;50.792;8.320;2023-07-31T07:33:19;9.38;;;5.07;;
17812;SDS011;9030;50.792;8.320;2023-07-31T07:35:45;8.25;;;4.18;;
17812;SDS011;9030;50.792;8.320;2023-07-31T07:38:13;10.38;;;4.70;;
17812;SDS011;9030;50.792;8.320;2023-07-31T07:40:40;11.90;;;5.05;;
17812;SDS011;9030;50.792;8.320;2023-07-31T07:43:06;9.05;;;4.38;;
17812;SDS011;9030;50.792;8.320;2023-07-31T07:45:35;12.27;;;5.38;;
17812;SDS011;9030;50.792;8.320;2023-07-31T07:48:01;12.80;;;5.82;;
17812;SDS011;9030;50.792;8.320;2023-07-31T07:50:28;11.73;;;4.93;;
17812;SDS011;9030;50.792;8.320;2023-07-31T07:52:55;10.40;;;4.82;;
17812;SDS011;9030;50.792;8.320;2023-07-31T07:55:21;10.27;;;5.40;;
17812;SDS011;9030;50.792;8.320;2023-07-31T07:57:48;11.77;;;5.78;;
17812;SDS011;9030;50.792;8.320;2023-07-31T08:00:15;13.25;;;5.00;;
17812;SDS011;9030;50.792;8.320;2023-07-31T08:02:44;11.77;;;5.00;;
17812;SDS011;9030;50.792;8.320;2023-07-31T08:05:11;14.15;;;5.50;;
17812;SDS011;9030;50.792;8.320;2023-07-31T08:07:37;12.00;;;5.38;;
17812;SDS011;9030;50.792;8.320;2023-07-31T08:10:05;9.40;;;6.07;;
17812;SDS011;9030;50.792;8.320;2023-07-31T08:12:32;13.88;;;6.50;;
17812;SDS011;9030;50.792;8.320;2023-07-31T08:14:59;10.10;;;5.90;;
17812;SDS011;9030;50.792;8.320;2023-07-31T08:17:26;12.10;;;4.88;;
17812;SDS011;9030;50.792;8.320;2023-07-31T08:19:54;10.45;;;4.53;;
17812;SDS011;9030;50.792;8.320;2023-07-31T08:22:23;10.27;;;5.45;;
17812;SDS011;9030;50.792;8.320;2023-07-31T08:24:49;14.18;;;5.65;;
17812;SDS011;9030;50.792;8.320;2023-07-31T08:27:16;12.65;;;5.65;;
17812;SDS011;9030;50.792;8.320;2023-07-31T08:29:43;11.45;;;6.00;;
17812;SDS011;9030;50.792;8.320;2023-07-31T08:32:09;14.00;;;5.88;;
17812;SDS011;9030;50.792;8.320;2023-07-31T08:34:36;12.90;;;5.75;;
17812;SDS011;9030;50.792;8.320;2023-07-31T08:37:04;12.32;;;5.57;;
17812;SDS011;9030;50.792;8.320;2023-07-31T08:39:31;12.10;;;5.82;;
17812;SDS011;9030;50.792;8.320;2023-07-31T08:41:58;13.38;;;5.68;;
17812;SDS011;9030;50.792;8.320;2023-07-31T08:44:25;11.05;;;6.35;;
17812;SDS011;9030;50.792;8.320;2023-07-31T08:46:52;12.77;;;6.70;;
17812;SDS011;9030;50.792;8.320;2023-07-31T08:49:19;14.40;;;6.03;;
17812;SDS011;9030;50.792;8.320;2023-07-31T08:51:47;14.10;;;6.80;;
17812;SDS011;9030;50.792;8.320;2023-07-31T08:54:17;12.95;;;6.05;;
17812;SDS011;9030;50.792;8.320;2023-07-31T08:56:44;15.35;;;6.50;;
17812;SDS011;9030;50.792;8.320;2023-07-31T08:59:11;13.05;;;5.97;;
17812;SDS011;9030;50.792;8.320;2023-07-31T09:01:40;13.48;;;5.93;;
17812;SDS011;9030;50.792;8.320;2023-07-31T09:04:14;12.07;;;6.15;;
17812;SDS011;9030;50.792;8.320;2023-07-31T09:06:42;12.88;;;7.10;;
17812;SDS011;9030;50.792;8.320;2023-07-31T09:09:10;13.55;;;6.22;;
17812;SDS011;9030;50.792;8.320;2023-07-31T09:11:38;9.38;;;5.32;;
17812;SDS011;9030;50.792;8.320;2023-07-31T09:14:05;14.98;;;6.03;;
17812;SDS011;9030;50.792;8.320;2023-07-31T09:16:34;15.38;;;6.80;;
17812;SDS011;9030;50.792;8.320;2023-07-31T09:19:00;11.68;;;5.47;;
17812;SDS011;9030;50.792;8.320;2023-07-31T09:21:28;11.23;;;5.43;;
17812;SDS011;9030;50.792;8.320;2023-07-31T09:23:55;10.57;;;5.05;;
17812;SDS011;9030;50.792;8.320;2023-07-31T09:26:31;11.40;;;5.80;;
17812;SDS011;9030;50.792;8.320;2023-07-31T09:29:00;12.68;;;5.38;;
17812;SDS011;9030;50.792;8.320;2023-07-31T09:31:33;10.70;;;6.38;;
17812;SDS011;9030;50.792;8.320;2023-07-31T09:34:05;14.68;;;6.18;;
17812;SDS011;9030;50.792;8.320;2023-07-31T09:36:31;12.30;;;6.57;;
17812;SDS011;9030;50.792;8.320;2023-07-31T09:39:01;12.77;;;5.05;;
17812;SDS011;9030;50.792;8.320;2023-07-31T09:41:28;9.90;;;5.25;;
17812;SDS011;9030;50.792;8.320;2023-07-31T09:43:55;13.75;;;6.00;;
17812;SDS011;9030;50.792;8.320;2023-07-31T09:46:24;11.05;;;5.25;;
17812;SDS011;9030;50.792;8.320;2023-07-31T09:48:53;10.65;;;5.65;;
17812;SDS011;9030;50.792;8.320;2023-07-31T09:51:34;11.05;;;4.75;;
17812;SDS011;9030;50.792;8.320;2023-07-31T09:54:03;11.20;;;6.30;;
17812;SDS011;9030;50.792;8.320;2023-07-31T09:56:34;10.88;;;5.30;;
17812;SDS011;9030;50.792;8.320;2023-07-31T09:59:02;11.13;;;5.25;;
17812;SDS011;9030;50.792;8.320;2023-07-31T10:01:32;11.02;;;5.65;;
17812;SDS011;9030;50.792;8.320;2023-07-31T10:03:59;12.13;;;5.55;;
17812;SDS011;9030;50.792;8.320;2023-07-31T10:06:27;11.43;;;5.72;;
17812;SDS011;9030;50.792;8.320;2023-07-31T10:08:54;10.30;;;5.40;;
17812;SDS011;9030;50.792;8.320;2023-07-31T10:11:22;11.02;;;5.18;;
17812;SDS011;9030;50.792;8.320;2023-07-31T10:13:50;14.15;;;5.85;;
17812;SDS011;9030;50.792;8.320;2023-07-31T10:16:18;9.52;;;5.03;;
17812;SDS011;9030;50.792;8.320;2023-07-31T10:18:46;12.13;;;5.60;;
17812;SDS011;9030;50.792;8.320;2023-07-31T10:21:14;10.55;;;5.45;;
17812;SDS011;9030;50.792;8.320;2023-07-31T10:23:42;12.57;;;5.80;;
17812;SDS011;9030;50.792;8.320;2023-07-31T10:26:10;11.40;;;5.53;;
17812;SDS011;9030;50.792;8.320;2023-07-31T10:28:39;12.80;;;5.55;;
17812;SDS011;9030;50.792;8.320;2023-07-31T10:31:06;11.93;;;5.32;;
17812;SDS011;9030;50.792;8.320;2023-07-31T10:33:33;15.63;;;5.75;;
17812;SDS011;9030;50.792;8.320;2023-07-31T10:36:14;11.68;;;5.32;;
17812;SDS011;9030;50.792;8.320;2023-07-31T10:38:44;12.02;;;5.75;;
17812;SDS011;9030;50.792;8.320;2023-07-31T10:41:10;12.60;;;5.57;;
17812;SDS011;9030;50.792;8.320;2023-07-31T10:43:37;11.73;;;5.63;;
17812;SDS011;9030;50.792;8.320;2023-07-31T10:46:07;12.52;;;5.80;;
17812;SDS011;9030;50.792;8.320;2023-07-31T10:48:34;11.43;;;5.65;;
17812;SDS011;9030;50.792;8.320;2023-07-31T10:51:06;12.40;;;5.60;;
17812;SDS011;9030;50.792;8.320;2023-07-31T10:53:36;13.13;;;5.55;;
17812;SDS011;9030;50.792;8.320;2023-07-31T10:56:03;13.02;;;6.57;;
17812;SDS011;9030;50.792;8.320;2023-07-31T10:58:31;13.95;;;5.85;;
17812;SDS011;9030;50.792;8.320;2023-07-31T11:00:59;11.88;;;5.80;;
17812;SDS011;9030;50.792;8.320;2023-07-31T11:03:40;11.38;;;5.53;;
17812;SDS011;9030;50.792;8.320;2023-07-31T11:06:07;11.80;;;5.82;;
17812;SDS011;9030;50.792;8.320;2023-07-31T11:08:35;10.27;;;5.10;;
17812;SDS011;9030;50.792;8.320;2023-07-31T11:11:09;10.63;;;4.90;;
17812;SDS011;9030;50.792;8.320;2023-07-31T11:13:40;12.50;;;6.00;;
17812;SDS011;9030;50.792;8.320;2023-07-31T11:16:09;12.93;;;7.10;;
17812;SDS011;9030;50.792;8.320;2023-07-31T11:18:37;12.60;;;6.72;;
17812;SDS011;9030;50.792;8.320;2023-07-31T11:21:05;9.57;;;4.80;;
17812;SDS011;9030;50.792;8.320;2023-07-31T11:23:32;13.88;;;5.75;;
17812;SDS011;9030;50.792;8.320;2023-07-31T11:26:00;12.43;;;5.43;;
17812;SDS011;9030;50.792;8.320;2023-07-31T11:28:30;12.80;;;5.00;;
17812;SDS011;9030;50.792;8.320;2023-07-31T11:30:57;12.35;;;5.45;;
17812;SDS011;9030;50.792;8.320;2023-07-31T11:33:24;12.10;;;5.60;;
17812;SDS011;9030;50.792;8.320;2023-07-31T11:35:51;12.27;;;5.25;;
17812;SDS011;9030;50.792;8.320;2023-07-31T11:38:21;13.20;;;5.43;;
17812;SDS011;9030;50.792;8.320;2023-07-31T11:40:49;11.57;;;5.45;;
17812;SDS011;9030;50.792;8.320;2023-07-31T11:43:17;11.20;;;5.03;;
17812;SDS011;9030;50.792;8.320;2023-07-31T11:45:45;15.85;;;4.88;;
17812;SDS011;9030;50.792;8.320;2023-07-31T11:48:18;11.15;;;4.88;;
17812;SDS011;9030;50.792;8.320;2023-07-31T11:50:45;14.82;;;5.13;;
17812;SDS011;9030;50.792;8.320;2023-07-31T11:53:14;8.55;;;4.20;;
17812;SDS011;9030;50.792;8.320;2023-07-31T11:55:41;9.80;;;5.10;;
17812;SDS011;9030;50.792;8.320;2023-07-31T11:58:08;10.52;;;4.75;;
17812;SDS011;9030;50.792;8.320;2023-07-31T12:00:37;10.32;;;5.03;;
17812;SDS011;9030;50.792;8.320;2023-07-31T12:03:04;12.52;;;4.85;;
17812;SDS011;9030;50.792;8.320;2023-07-31T12:05:30;11.82;;;6.03;;
17812;SDS011;9030;50.792;8.320;2023-07-31T12:07:57;10.68;;;4.72;;
17812;SDS011;9030;50.792;8.320;2023-07-31T12:10:27;14.65;;;4.93;;
17812;SDS011;9030;50.792;8.320;2023-07-31T12:12:56;10.60;;;5.40;;
17812;SDS011;9030;50.792;8.320;2023-07-31T12:15:28;10.60;;;5.00;;
17812;SDS011;9030;50.792;8.320;2023-07-31T12:18:04;9.43;;;4.60;;
17812;SDS011;9030;50.792;8.320;2023-07-31T12:20:32;10.63;;;4.30;;
17812;SDS011;9030;50.792;8.320;2023-07-31T12:22:59;9.57;;;4.07;;
17812;SDS011;9030;50.792;8.320;2023-07-31T12:25:32;9.02;;;4.25;;
17812;SDS011;9030;50.792;8.320;2023-07-31T12:28:04;9.27;;;4.50;;
17812;SDS011;9030;50.792;8.320;2023-07-31T12:30:37;13.63;;;4.13;;
17812;SDS011;9030;50.792;8.320;2023-07-31T12:33:05;10.05;;;3.85;;
17812;SDS011;9030;50.792;8.320;2023-07-31T12:35:36;11.10;;;3.95;;
17812;SDS011;9030;50.792;8.320;2023-07-31T12:38:03;11.15;;;3.55;;
17812;SDS011;9030;50.792;8.320;2023-07-31T12:40:30;8.13;;;3.80;;
17812;SDS011;9030;50.792;8.320;2023-07-31T12:42:57;9.80;;;3.17;;
17812;SDS011;9030;50.792;8.320;2023-07-31T12:45:23;8.00;;;3.58;;
17812;SDS011;9030;50.792;8.320;2023-07-31T12:47:51;8.85;;;3.55;;
17812;SDS011;9030;50.792;8.320;2023-07-31T12:50:18;11.52;;;3.10;;
17812;SDS011;9030;50.792;8.320;2023-07-31T12:52:45;10.98;;;3.50;;
17812;SDS011;9030;50.792;8.320;2023-07-31T12:55:11;12.77;;;5.28;;
17812;SDS011;9030;50.792;8.320;2023-07-31T12:57:39;9.77;;;3.33;;
17812;SDS011;9030;50.792;8.320;2023-07-31T13:00:07;5.88;;;2.53;;
17812;SDS011;9030;50.792;8.320;2023-07-31T13:02:34;8.35;;;3.22;;
17812;SDS011;9030;50.792;8.320;2023-07-31T13:05:02;5.90;;;2.80;;
17812;SDS011;9030;50.792;8.320;2023-07-31T13:07:29;4.57;;;2.63;;
17812;SDS011;9030;50.792;8.320;2023-07-31T13:09:56;8.52;;;3.05;;
17812;SDS011;9030;50.792;8.320;2023-07-31T13:12:22;5.60;;;2.58;;
17812;SDS011;9030;50.792;8.320;2023-07-31T13:14:49;6.78;;;2.88;;
17812;SDS011;9030;50.792;8.320;2023-07-31T13:17:16;8.43;;;3.70;;
17812;SDS011;9030;50.792;8.320;2023-07-31T13:19:44;6.35;;;2.70;;
17812;SDS011;9030;50.792;8.320;2023-07-31T13:22:12;8.35;;;2.85;;
17812;SDS011;9030;50.792;8.320;2023-07-31T13:24:38;7.68;;;3.53;;
17812;SDS011;9030;50.792;8.320;2023-07-31T13:27:05;11.10;;;3.42;;
17812;SDS011;9030;50.792;8.320;2023-07-31T13:29:32;9.05;;;3.15;;
17812;SDS011;9030;50.792;8.320;2023-07-31T13:31:58;5.32;;;2.85;;
17812;SDS011;9030;50.792;8.320;2023-07-31T13:34:25;10.10;;;2.75;;
17812;SDS011;9030;50.792;8.320;2023-07-31T13:36:53;5.93;;;2.53;;
17812;SDS011;9030;50.792;8.320;2023-07-31T13:39:22;6.60;;;2.50;;
17812;SDS011;9030;50.792;8.320;2023-07-31T13:41:49;11.27;;;3.58;;
17812;SDS011;9030;50.792;8.320;2023-07-31T13:44:15;9.27;;;3.25;;
17812;SDS011;9030;50.792;8.320;2023-07-31T13:46:42;6.75;;;2.92;;
17812;SDS011;9030;50.792;8.320;2023-07-31T13:49:08;9.20;;;3.53;;
17812;SDS011;9030;50.792;8.320;2023-07-31T13:51:35;7.43;;;3.42;;
17812;SDS011;9030;50.792;8.320;2023-07-31T13:54:04;9.80;;;3.22;;
17812;SDS011;9030;50.792;8.320;2023-07-31T13:56:33;5.68;;;2.95;;
17812;SDS011;9030;50.792;8.320;2023-07-31T13:58:59;7.68;;;3.47;;
17812;SDS011;9030;50.792;8.320;2023-07-31T14:01:26;6.75;;;3.50;;
17812;SDS011;9030;50.792;8.320;2023-07-31T14:03:53;6.65;;;3.58;;
17812;SDS011;9030;50.792;8.320;2023-07-31T14:06:20;8.25;;;3.40;;
17812;SDS011;9030;50.792;8.320;2023-07-31T14:08:46;11.73;;;4.47;;
17812;SDS011;9030;50.792;8.320;2023-07-31T14:11:13;7.45;;;4.03;;
17812;SDS011;9030;50.792;8.320;2023-07-31T14:13:41;9.85;;;4.57;;
17812;SDS011;9030;50.792;8.320;2023-07-31T14:16:08;12.63;;;4.28;;
17812;SDS011;9030;50.792;8.320;2023-07-31T14:18:34;8.35;;;4.15;;
17812;SDS011;9030;50.792;8.320;2023-07-31T14:21:01;10.68;;;4.70;;
17812;SDS011;9030;50.792;8.320;2023-07-31T14:23:27;8.00;;;4.80;;
17812;SDS011;9030;50.792;8.320;2023-07-31T14:25:54;7.95;;;4.25;;
17812;SDS011;9030;50.792;8.320;2023-07-31T14:28:21;9.90;;;5.00;;
17812;SDS011;9030;50.792;8.320;2023-07-31T14:30:49;7.93;;;4.03;;
17812;SDS011;9030;50.792;8.320;2023-07-31T14:33:16;9.30;;;4.53;;
17812;SDS011;9030;50.792;8.320;2023-07-31T14:35:42;10.85;;;4.65;;
17812;SDS011;9030;50.792;8.320;2023-07-31T14:38:09;8.20;;;3.88;;
17812;SDS011;9030;50.792;8.320;2023-07-31T14:40:36;8.93;;;4.18;;
17812;SDS011;9030;50.792;8.320;2023-07-31T14:43:03;9.27;;;4.03;;
17812;SDS011;9030;50.792;8.320;2023-07-31T14:45:30;7.93;;;3.72;;
17812;SDS011;9030;50.792;8.320;2023-07-31T14:47:58;10.50;;;3.53;;
17812;SDS011;9030;50.792;8.320;2023-07-31T14:50:25;7.50;;;2.90;;
17812;SDS011;9030;50.792;8.320;2023-07-31T14:52:52;7.60;;;3.58;;
17812;SDS011;9030;50.792;8.320;2023-07-31T14:55:18;7.10;;;3.42;;